Time;durP1;ratioP1;P1;durP2;ratioP2;P2;SDS_P1;SDS_P2;PMS_P1;PMS_P2;Temp;Humidity;BMP_temperature;BMP_pressure;BME280_temperature;BME280_humidity;BME280_pressure;Samples;Min_cycle;Max_cycle;Signal;HPM_P1;HPM_P2
2022/07/16 00:03:01;;;;;;;7.93;2.15;;;;;;;15.21;78.87;102039.75;4998355;28;20051;-68
2022/07/16 00:05:27;;;;;;;5.13;2.25;;;;;;;15.15;79.20;102045.47;4997270;28;20101;-68
2022/07/16 00:07:54;;;;;;;2.03;1.70;;;;;;;15.24;79.87;102041.34;4998618;28;20042;-68
2022/07/16 00:10:20;;;;;;;3.90;1.73;;;;;;;15.36;79.63;102037.00;5012957;28;20571;-68
2022/07/16 00:12:45;;;;;;;2.67;1.70;;;;;;;15.31;79.63;102033.75;5017727;28;20069;-67
2022/07/16 00:15:11;;;;;;;4.60;2.17;;;;;;;15.35;79.84;102035.28;5016286;28;20037;-67
2022/07/16 00:17:36;;;;;;;2.47;2.05;;;;;;;15.41;79.39;102035.78;5016892;28;20042;-68
2022/07/16 00:20:03;;;;;;;4.90;1.90;;;;;;;15.23;80.52;102032.44;5017180;28;20052;-68
2022/07/16 00:22:29;;;;;;;4.85;2.13;;;;;;;15.32;80.86;102033.66;5016361;28;20037;-68
2022/07/16 00:24:54;;;;;;;4.90;1.67;;;;;;;15.47;80.63;102037.19;5016883;28;20034;-68
2022/07/16 00:27:20;;;;;;;3.97;2.05;;;;;;;15.41;80.36;102037.56;5016861;28;20045;-68
2022/07/16 00:29:46;;;;;;;2.90;1.88;;;;;;;15.48;80.14;102034.41;5017190;28;20042;-68
2022/07/16 00:32:12;;;;;;;2.28;1.77;;;;;;;15.39;81.00;102042.19;5016301;28;20100;-67
2022/07/16 00:34:37;;;;;;;3.35;1.90;;;;;;;15.33;81.55;102032.69;5014957;28;20068;-67
2022/07/16 00:37:05;;;;;;;5.93;2.22;;;;;;;15.43;80.90;102030.28;5017450;28;20042;-69
2022/07/16 00:39:30;;;;;;;4.20;2.00;;;;;;;15.42;80.48;102028.56;5018379;28;20045;-69
2022/07/16 00:41:56;;;;;;;7.05;2.58;;;;;;;15.61;79.87;102029.06;5016855;28;20050;-68
2022/07/16 00:44:24;;;;;;;4.32;2.28;;;;;;;15.61;79.10;102029.06;5016581;28;20046;-68
2022/07/16 00:46:50;;;;;;;3.20;2.10;;;;;;;15.78;79.13;102023.50;5014768;28;20057;-68
2022/07/16 00:49:19;;;;;;;5.45;2.25;;;;;;;15.89;79.38;102028.16;5016994;28;20045;-68
2022/07/16 00:51:54;;;;;;;2.58;1.75;;;;;;;15.80;80.00;102024.25;5014637;28;20041;-68
2022/07/16 00:54:20;;;;;;;4.20;2.17;;;;;;;15.85;79.99;102020.38;5016117;28;20064;-69
2022/07/16 00:56:46;;;;;;;2.38;1.80;;;;;;;15.86;79.25;102020.28;5015786;28;20038;-68
2022/07/16 00:59:12;;;;;;;3.63;2.00;;;;;;;15.94;79.35;102019.78;5015754;28;20038;-68
2022/07/16 01:01:38;;;;;;;2.90;1.95;;;;;;;16.07;78.41;102018.00;5016660;28;20037;-67
2022/07/16 01:04:09;;;;;;;4.25;1.58;;;;;;;16.12;78.34;102018.53;5014578;28;20515;-68
2022/07/16 01:06:35;;;;;;;5.57;2.72;;;;;;;16.17;78.20;102018.22;5015973;28;20042;-68
2022/07/16 01:09:01;;;;;;;5.65;2.50;;;;;;;16.24;77.87;102017.69;5014744;28;20042;-68
2022/07/16 01:11:26;;;;;;;3.22;2.00;;;;;;;16.21;77.95;102012.50;5004772;28;20045;-69
2022/07/16 01:13:55;;;;;;;4.28;2.17;;;;;;;16.31;75.82;102019.00;4996091;28;20569;-68
2022/07/16 01:16:20;;;;;;;8.68;3.85;;;;;;;16.33;76.31;102012.66;4995799;28;20042;-68
2022/07/16 01:18:46;;;;;;;2.85;2.17;;;;;;;16.38;76.58;102010.50;4995976;28;20096;-68
2022/07/16 01:21:14;;;;;;;8.88;2.67;;;;;;;16.42;75.44;102010.19;4995517;28;20035;-68
2022/07/16 01:23:40;;;;;;;4.88;2.47;;;;;;;16.44;74.89;102013.63;4996283;28;20126;-67
2022/07/16 01:26:05;;;;;;;5.45;2.90;;;;;;;16.45;75.40;102009.09;5009593;28;20068;-67
2022/07/16 01:28:31;;;;;;;8.10;2.40;;;;;;;16.41;75.39;102010.28;5013961;28;20034;-68
2022/07/16 01:30:56;;;;;;;4.70;2.47;;;;;;;16.40;76.07;102011.25;5015501;28;20053;-68
2022/07/16 01:33:36;;;;;;;5.22;2.83;;;;;;;16.46;75.55;102011.69;5013923;28;20041;-68
2022/07/16 01:36:05;;;;;;;5.88;2.20;;;;;;;16.48;75.25;102006.22;5016420;28;20053;-67
2022/07/16 01:38:31;;;;;;;5.22;2.50;;;;;;;16.44;75.83;102005.56;5014654;28;20061;-67
2022/07/16 01:40:58;;;;;;;4.55;3.08;;;;;;;16.42;76.40;102007.50;5014455;28;20038;-67
2022/07/16 01:43:25;;;;;;;5.07;3.13;;;;;;;16.48;75.72;102004.38;5015152;28;20655;-68
2022/07/16 01:45:54;;;;;;;3.03;2.53;;;;;;;16.45;75.96;102007.28;5015250;28;20060;-66
2022/07/16 01:48:20;;;;;;;4.43;2.28;;;;;;;16.49;75.84;102008.78;5016060;28;20065;-68
2022/07/16 01:50:46;;;;;;;3.67;2.75;;;;;;;16.48;76.09;102008.91;5016644;28;20124;-67
2022/07/16 01:53:12;;;;;;;5.30;2.88;;;;;;;16.47;75.74;102008.03;5016070;28;20112;-69
2022/07/16 01:55:38;;;;;;;4.65;3.00;;;;;;;16.50;75.92;102006.94;4997206;28;20050;-68
2022/07/16 01:58:08;;;;;;;5.18;2.65;;;;;;;16.47;76.20;102001.81;4995511;28;20039;-68
2022/07/16 02:00:35;;;;;;;6.05;2.50;;;;;;;16.44;76.63;102000.16;4996276;28;20057;-68
2022/07/16 02:03:00;;;;;;;6.60;2.80;;;;;;;16.42;77.27;102001.25;4996269;28;20443;-69
2022/07/16 02:05:26;;;;;;;8.30;3.47;;;;;;;16.37;77.45;101998.03;4995410;28;20052;-68
2022/07/16 02:07:54;;;;;;;4.93;3.10;;;;;;;16.33;78.17;101997.38;4995798;28;20057;-68
2022/07/16 02:10:20;;;;;;;7.35;3.10;;;;;;;16.42;77.24;102002.13;4995588;28;20046;-67
2022/07/16 02:12:48;;;;;;;12.05;3.25;;;;;;;16.42;77.83;101998.56;4994907;28;20046;-68
2022/07/16 02:15:17;;;;;;;5.45;3.20;;;;;;;16.35;78.34;101991.88;4996988;28;20077;-68
2022/07/16 02:17:46;;;;;;;6.78;3.22;;;;;;;16.48;77.23;101993.59;4996610;28;20106;-68
2022/07/16 02:20:11;;;;;;;11.10;3.25;;;;;;;16.47;77.35;101991.03;4994806;28;20903;-68
2022/07/16 02:22:38;;;;;;;5.82;2.85;;;;;;;16.48;77.13;101990.06;4994800;28;20049;-69
2022/07/16 02:25:05;;;;;;;6.60;3.38;;;;;;;16.50;77.36;101991.66;5000110;28;20073;-68
2022/07/16 02:27:30;;;;;;;6.35;3.00;;;;;;;16.51;77.32;101987.13;5014652;28;20058;-69
2022/07/16 02:29:56;;;;;;;5.07;2.42;;;;;;;16.56;77.32;101990.34;5012691;28;20050;-68
2022/07/16 02:32:24;;;;;;;7.93;3.22;;;;;;;16.53;77.06;101987.91;5012232;28;20046;-67
2022/07/16 02:34:49;;;;;;;6.22;3.13;;;;;;;16.59;76.96;101995.53;5014059;28;20045;-67
2022/07/16 02:37:18;;;;;;;4.68;3.08;;;;;;;16.60;76.93;101994.56;5012485;28;20046;-68
2022/07/16 02:39:46;;;;;;;9.75;3.80;;;;;;;16.64;76.74;101989.84;5012634;28;20077;-67
2022/07/16 02:42:11;;;;;;;5.05;2.90;;;;;;;16.65;76.86;101988.84;5011010;28;20048;-68
2022/07/16 02:44:37;;;;;;;4.65;3.10;;;;;;;16.66;76.62;101991.44;5012504;28;20054;-67
2022/07/16 02:47:02;;;;;;;3.88;3.03;;;;;;;16.68;77.10;101988.66;5012388;28;20569;-68
2022/07/16 02:49:28;;;;;;;7.68;3.00;;;;;;;16.69;77.65;101988.53;5012565;28;20042;-68
2022/07/16 02:51:53;;;;;;;5.20;3.30;;;;;;;16.61;77.70;101992.72;5013196;28;20033;-69
2022/07/16 02:54:19;;;;;;;5.65;3.45;;;;;;;16.59;78.29;101992.84;5011574;28;20046;-68
2022/07/16 02:56:44;;;;;;;8.05;3.20;;;;;;;16.58;78.10;101980.34;5013124;28;20030;-68
2022/07/16 02:59:09;;;;;;;4.57;3.20;;;;;;;16.55;78.39;101986.81;5016125;28;20615;-67
2022/07/16 03:01:35;;;;;;;7.95;3.95;;;;;;;16.57;78.10;101976.81;5018005;28;20048;-68
2022/07/16 03:04:00;;;;;;;5.75;3.72;;;;;;;16.64;78.00;101990.69;5016955;28;20057;-66
2022/07/16 03:06:26;;;;;;;5.20;3.53;;;;;;;16.59;78.95;101987.47;5017322;28;20054;-66
2022/07/16 03:08:52;;;;;;;7.03;3.58;;;;;;;16.52;79.00;101994.25;5017192;28;20053;-68
2022/07/16 03:11:17;;;;;;;4.82;4.00;;;;;;;16.53;79.02;101996.84;5016779;28;20391;-68
2022/07/16 03:13:45;;;;;;;7.82;3.97;;;;;;;16.54;79.05;101998.56;5016910;28;20069;-68
2022/07/16 03:16:11;;;;;;;5.35;3.47;;;;;;;16.57;79.17;101998.34;5017628;28;20038;-67
2022/07/16 03:18:39;;;;;;;6.05;3.33;;;;;;;16.54;79.18;101997.69;5017995;28;20864;-67
2022/07/16 03:21:04;;;;;;;7.90;3.47;;;;;;;16.51;79.32;101998.75;5016944;28;20116;-68
2022/07/16 03:23:30;;;;;;;7.68;3.35;;;;;;;16.53;79.69;101996.84;5016350;28;20049;-68
2022/07/16 03:25:58;;;;;;;6.43;3.58;;;;;;;16.61;79.50;102008.88;5017269;28;20064;-68
2022/07/16 03:28:24;;;;;;;9.68;4.22;;;;;;;16.55;79.84;102007.50;5017816;28;20022;-67
2022/07/16 03:30:49;;;;;;;6.13;4.50;;;;;;;16.51;80.10;102009.53;5017435;28;20045;-68
2022/07/16 03:33:15;;;;;;;10.38;3.42;;;;;;;16.47;80.20;102018.81;5017473;28;20049;-68
2022/07/16 03:35:43;;;;;;;6.95;4.03;;;;;;;16.49;80.08;102022.25;5015859;28;20094;-66
2022/07/16 03:41:01;;;;;;;7.20;3.92;;;;;;;16.51;80.39;102019.44;5018892;28;20069;-67
2022/07/16 03:43:28;;;;;;;5.57;3.70;;;;;;;16.47;81.31;102026.03;5018058;28;20121;-66
2022/07/16 03:45:53;;;;;;;5.30;3.58;;;;;;;16.55;80.57;102016.44;5016608;28;20161;-67
2022/07/16 03:48:24;;;;;;;7.10;4.10;;;;;;;16.51;80.88;102024.81;5018087;28;20053;-68
2022/07/16 03:50:49;;;;;;;7.13;4.47;;;;;;;16.49;81.30;102026.78;5018033;28;20046;-67
2022/07/16 03:53:15;;;;;;;9.27;4.60;;;;;;;16.49;81.97;102022.25;5016445;28;20041;-68
2022/07/16 03:55:40;;;;;;;8.00;4.53;;;;;;;16.52;82.07;102024.75;5017683;28;20042;-67
2022/07/16 03:58:05;;;;;;;6.40;4.13;;;;;;;16.55;82.50;102026.34;5017821;28;20042;-67
2022/07/16 04:00:31;;;;;;;6.55;4.13;;;;;;;16.65;81.92;102027.41;5018520;28;20046;-67
2022/07/16 04:02:56;;;;;;;9.80;4.40;;;;;;;16.64;82.20;102039.16;5016757;28;20056;-68
2022/07/16 04:05:25;;;;;;;8.48;4.18;;;;;;;16.62;82.62;102041.13;5018548;28;20048;-67
2022/07/16 04:07:50;;;;;;;9.38;4.07;;;;;;;16.75;82.13;102039.31;5018937;28;20038;-67
2022/07/16 04:10:16;;;;;;;11.25;5.05;;;;;;;16.72;83.60;102046.75;5018602;28;20466;-67
2022/07/16 04:12:41;;;;;;;8.85;4.80;;;;;;;16.76;82.71;102053.63;5018230;28;20042;-68
2022/07/16 04:15:07;;;;;;;8.07;4.65;;;;;;;16.81;82.86;102054.19;5017853;28;20049;-68
2022/07/16 04:17:33;;;;;;;8.77;5.40;;;;;;;16.72;84.33;102052.16;5018602;28;20069;-67
2022/07/16 04:19:58;;;;;;;7.57;4.93;;;;;;;16.82;83.92;102064.00;5018614;28;20041;-67
2022/07/16 04:22:24;;;;;;;8.15;5.20;;;;;;;16.86;84.22;102067.31;5016607;28;20041;-68
2022/07/16 04:24:49;;;;;;;8.52;5.32;;;;;;;16.92;84.51;102065.09;5013448;28;20090;-67
2022/07/16 04:27:15;;;;;;;10.00;5.25;;;;;;;16.97;84.46;102064.75;5000426;28;20038;-68
2022/07/16 04:29:40;;;;;;;6.97;5.07;;;;;;;16.92;85.25;102073.16;4997625;28;20046;-66
2022/07/16 04:32:06;;;;;;;10.80;5.05;;;;;;;16.83;85.99;102066.59;5006352;28;20115;-69
2022/07/16 04:34:31;;;;;;;7.43;4.88;;;;;;;16.81;86.09;102073.91;5008387;28;20051;-66
2022/07/16 04:36:57;;;;;;;8.43;4.97;;;;;;;16.75;86.80;102084.25;5010350;28;20042;-67
2022/07/16 04:39:25;;;;;;;8.68;4.60;;;;;;;16.73;86.87;102087.06;5016969;28;20108;-68
2022/07/16 04:41:59;;;;;;;8.88;4.47;;;;;;;16.66;89.00;102099.16;5015599;28;20124;-68
2022/07/16 04:44:25;;;;;;;7.38;4.70;;;;;;;16.48;92.78;102097.75;5016446;28;20050;-68
2022/07/16 04:46:53;;;;;;;8.90;5.13;;;;;;;16.25;94.79;102110.06;5014406;28;20056;-67
2022/07/16 04:49:18;;;;;;;9.63;5.82;;;;;;;16.12;98.65;102112.72;5014663;28;20140;-68
2022/07/16 04:51:46;;;;;;;11.63;6.22;;;;;;;15.79;100.00;102116.66;5014515;28;20038;-67
2022/07/16 04:54:12;;;;;;;8.55;5.93;;;;;;;15.69;100.00;102115.53;5016757;28;20105;-68
2022/07/16 04:56:37;;;;;;;11.75;6.68;;;;;;;15.67;100.00;102120.16;5016819;28;20041;-68
2022/07/16 04:59:03;;;;;;;12.13;6.85;;;;;;;15.67;100.00;102121.97;5016843;28;20624;-67
2022/07/16 05:01:28;;;;;;;10.20;5.65;;;;;;;15.46;100.00;102125.06;5017025;28;20120;-68
2022/07/16 05:03:54;;;;;;;8.43;5.45;;;;;;;15.62;100.00;102121.38;5018962;28;20095;-68
2022/07/16 05:06:19;;;;;;;8.30;6.10;;;;;;;15.68;100.00;102113.81;5020497;28;20056;-67
2022/07/16 05:08:45;;;;;;;12.27;6.10;;;;;;;15.82;100.00;102121.00;5020519;28;20094;-67
2022/07/16 05:11:10;;;;;;;8.73;5.70;;;;;;;15.98;100.00;102107.41;5019770;28;20045;-67
2022/07/16 05:13:36;;;;;;;9.90;5.53;;;;;;;16.31;100.00;102112.34;5008299;28;20050;-68
2022/07/16 05:16:02;;;;;;;11.43;5.78;;;;;;;16.48;100.00;102105.84;5006450;28;20043;-68
2022/07/16 05:18:28;;;;;;;12.77;5.43;;;;;;;16.48;100.00;102117.47;5001891;28;20056;-68
2022/07/16 05:20:53;;;;;;;10.20;5.97;;;;;;;16.66;100.00;102118.03;5007564;28;20056;-68
2022/07/16 05:23:19;;;;;;;9.07;5.65;;;;;;;16.75;100.00;102120.13;5011659;28;20144;-67
2022/07/16 05:25:45;;;;;;;8.13;5.95;;;;;;;16.89;100.00;102121.00;5021543;28;20030;-68
2022/07/16 05:28:10;;;;;;;10.15;5.43;;;;;;;17.03;100.00;102129.84;5023068;28;20042;-68
2022/07/16 05:30:36;;;;;;;9.57;5.43;;;;;;;16.97;98.77;102130.28;5023537;28;20053;-68
2022/07/16 05:33:01;;;;;;;10.68;4.95;;;;;;;17.01;99.30;102130.91;5015850;28;20046;-67
2022/07/16 05:35:26;;;;;;;13.18;5.57;;;;;;;17.16;100.00;102131.69;5006237;28;20042;-67
2022/07/16 05:37:58;;;;;;;14.88;5.15;;;;;;;17.70;94.23;102126.84;5005051;28;20052;-67
2022/07/16 05:40:23;;;;;;;9.77;5.28;;;;;;;18.20;93.78;102127.69;5005420;28;20076;-67
2022/07/16 05:42:49;;;;;;;11.43;4.72;;;;;;;19.17;88.29;102125.66;5005146;28;20574;-66
2022/07/16 05:45:18;;;;;;;11.50;4.55;;;;;;;19.72;83.49;102132.09;5004541;28;20046;-67
2022/07/16 05:47:46;;;;;;;4.88;3.83;;;;;;;19.97;81.61;102142.63;5001310;28;20124;-68
2022/07/16 05:50:12;;;;;;;5.78;3.70;;;;;;;20.67;80.02;102141.28;5004161;28;20443;-68
2022/07/16 05:52:37;;;;;;;7.30;3.85;;;;;;;21.13;76.70;102138.16;5002778;28;20045;-67
2022/07/16 05:55:03;;;;;;;11.63;3.50;;;;;;;20.24;78.89;102138.63;5004359;28;20046;-67
2022/07/16 05:57:32;;;;;;;6.63;3.13;;;;;;;20.89;77.51;102130.34;5003511;28;20057;-67
2022/07/16 05:59:57;;;;;;;8.32;3.10;;;;;;;20.66;77.34;102140.44;5004405;28;20045;-67
2022/07/16 06:02:23;;;;;;;7.00;3.30;;;;;;;21.47;75.68;102143.38;5003973;28;20096;-67
2022/07/16 06:04:48;;;;;;;6.32;3.15;;;;;;;21.88;74.12;102136.06;5004436;28;20045;-67
2022/07/16 06:07:14;;;;;;;4.18;2.45;;;;;;;21.25;73.44;102143.53;5004112;28;20057;-67
2022/07/16 06:09:39;;;;;;;3.88;2.30;;;;;;;20.15;77.00;102149.22;5002632;28;20045;-67
2022/07/16 06:12:05;;;;;;;5.78;2.10;;;;;;;20.49;78.33;102151.00;5004478;28;20042;-67
2022/07/16 06:14:30;;;;;;;3.83;1.95;;;;;;;20.92;74.42;102146.31;5002197;28;20932;-67
2022/07/16 06:16:59;;;;;;;8.23;2.63;;;;;;;20.74;74.90;102153.34;5005933;28;20060;-68
2022/07/16 06:19:27;;;;;;;3.13;2.42;;;;;;;20.07;75.64;102150.84;5008466;28;20041;-67
2022/07/16 06:21:53;;;;;;;2.83;1.90;;;;;;;20.19;77.92;102152.56;5007615;28;20501;-66
2022/07/16 06:24:18;;;;;;;6.05;2.38;;;;;;;19.56;79.05;102154.94;5005033;28;20506;-67
2022/07/16 06:26:47;;;;;;;4.85;1.98;;;;;;;20.33;76.63;102164.94;5003376;28;20044;-66
2022/07/16 06:29:19;;;;;;;8.32;2.30;;;;;;;20.02;76.21;102163.91;5004931;28;20107;-67
2022/07/16 06:31:44;;;;;;;;;;;;;;;19.28;80.54;102163.56;5005401;28;20056;-67
2022/07/16 06:34:10;;;;;;;3.50;2.05;;;;;;;19.67;77.46;102170.34;5004385;28;20706;-67
2022/07/16 06:36:36;;;;;;;4.43;1.65;;;;;;;19.60;75.25;102170.00;5006717;28;20056;-67
2022/07/16 06:39:05;;;;;;;3.05;1.45;;;;;;;18.89;79.08;102173.81;5004817;28;20030;-66
2022/07/16 06:41:30;;;;;;;2.58;1.75;;;;;;;20.12;74.25;102173.84;5004286;28;20038;-65
2022/07/16 06:43:56;;;;;;;2.45;1.48;;;;;;;19.80;75.85;102187.31;5006674;28;20109;-66
2022/07/16 06:46:25;;;;;;;4.53;1.35;;;;;;;19.33;75.94;102189.25;5005597;28;20046;-67
2022/07/16 06:48:50;;;;;;;4.65;1.50;;;;;;;19.00;77.18;102187.34;5003810;28;20081;-67
2022/07/16 06:51:16;;;;;;;5.30;1.50;;;;;;;19.53;75.98;102189.50;5002315;28;20037;-67
2022/07/16 06:53:41;;;;;;;2.25;1.65;;;;;;;19.84;69.72;102188.81;5003629;28;20042;-66
2022/07/16 06:56:07;;;;;;;3.03;1.70;;;;;;;20.86;70.92;102192.97;5002301;28;20133;-67
2022/07/16 06:58:33;;;;;;;5.40;1.85;;;;;;;21.46;66.88;102190.50;5001889;28;20048;-66
2022/07/16 07:01:02;;;;;;;2.10;1.30;;;;;;;21.77;63.25;102183.22;5001739;28;20119;-67
2022/07/16 07:03:28;;;;;;;5.45;1.67;;;;;;;21.84;64.72;102184.41;4992426;28;20175;-66
2022/07/16 07:05:56;;;;;;;5.32;1.40;;;;;;;21.53;62.79;102188.09;4985457;28;20038;-65
2022/07/16 07:08:21;;;;;;;2.67;1.30;;;;;;;22.20;60.33;102192.97;4982151;28;20042;-65
2022/07/16 07:10:50;;;;;;;5.63;1.50;;;;;;;21.08;64.14;102207.38;4982214;28;20124;-64
2022/07/16 07:13:17;;;;;;;4.07;1.30;;;;;;;20.27;65.90;102208.78;4980740;28;20067;-66
2022/07/16 07:15:45;;;;;;;3.25;1.10;;;;;;;19.94;66.45;102207.88;4980858;28;20558;-67
2022/07/16 07:18:11;;;;;;;3.28;1.42;;;;;;;19.93;66.97;102211.56;4981159;28;20061;-67
2022/07/16 07:20:37;;;;;;;5.43;1.40;;;;;;;19.61;68.05;102220.41;4981227;28;20061;-66
2022/07/16 07:23:02;;;;;;;3.33;1.35;;;;;;;18.95;71.14;102221.97;4981166;28;20043;-66
2022/07/16 07:25:28;;;;;;;2.38;1.48;;;;;;;18.35;73.80;102217.50;4989074;28;20441;-66
2022/07/16 07:27:53;;;;;;;3.55;1.50;;;;;;;18.57;73.92;102232.97;4999857;28;20038;-66
2022/07/16 07:30:19;;;;;;;8.38;1.25;;;;;;;18.91;74.28;102233.16;4998686;28;20041;-66
2022/07/16 07:32:44;;;;;;;5.55;1.50;;;;;;;19.88;69.33;102230.91;4999057;28;20033;-66
2022/07/16 07:35:11;;;;;;;2.67;1.48;;;;;;;19.91;65.92;102225.22;4997897;28;20561;-66
2022/07/16 07:37:37;;;;;;;3.17;1.20;;;;;;;20.70;67.58;102244.06;4997886;28;20136;-66
2022/07/16 07:40:04;;;;;;;1.95;1.30;;;;;;;20.67;61.15;102242.44;4997597;28;20042;-65
2022/07/16 07:42:30;;;;;;;3.92;1.20;;;;;;;20.53;62.40;102245.44;4999332;28;20124;-67
2022/07/16 07:45:01;;;;;;;2.92;1.25;;;;;;;20.73;61.78;102246.50;4999008;28;20056;-66
2022/07/16 07:47:28;;;;;;;7.55;1.38;;;;;;;20.17;60.57;102249.31;5000438;28;20056;-66
2022/07/16 07:49:53;;;;;;;6.18;1.38;;;;;;;20.76;63.57;102251.66;5002255;28;20077;-67
2022/07/16 07:52:19;;;;;;;4.57;1.15;;;;;;;20.90;61.37;102253.22;5000877;28;20141;-67
2022/07/16 07:54:44;;;;;;;4.50;1.50;;;;;;;20.18;60.38;102253.75;4992456;28;20045;-66
2022/07/16 07:57:10;;;;;;;4.53;1.10;;;;;;;20.47;60.54;102264.94;4981013;28;20038;-65
2022/07/16 07:59:38;;;;;;;3.05;1.42;;;;;;;20.99;59.80;102260.59;4981424;28;20541;-66
2022/07/16 08:02:11;;;;;;;4.57;1.98;;;;;;;20.99;57.02;102262.44;4982997;28;20053;-66
2022/07/16 08:04:36;;;;;;;5.07;1.05;;;;;;;21.34;57.04;102254.88;4980916;28;20057;-66
2022/07/16 08:07:02;;;;;;;2.75;1.08;;;;;;;20.82;57.99;102266.56;4982352;28;20042;-66
2022/07/16 08:09:28;;;;;;;3.50;1.20;;;;;;;20.90;56.67;102259.50;4983458;28;20046;-67
2022/07/16 08:11:53;;;;;;;3.72;1.00;;;;;;;21.07;55.56;102259.91;4981995;28;20038;-66
2022/07/16 08:14:19;;;;;;;3.28;1.15;;;;;;;21.83;58.64;102255.13;4981381;28;20038;-66
2022/07/16 08:16:44;;;;;;;4.45;1.10;;;;;;;21.48;53.77;102255.50;4982096;28;20482;-67
2022/07/16 08:19:10;;;;;;;4.50;1.17;;;;;;;21.53;54.54;102261.41;4981944;28;20049;-66
2022/07/16 08:21:35;;;;;;;4.47;1.20;;;;;;;21.82;55.30;102259.69;4982193;28;20514;-67
2022/07/16 08:26:45;;;;;;;5.20;1.75;;;;;;;20.94;58.87;102279.09;5000728;28;20475;-66
2022/07/16 08:29:10;;;;;;;5.75;1.35;;;;;;;21.24;54.29;102270.19;5001315;28;20042;-66
2022/07/16 08:31:36;;;;;;;8.15;1.52;;;;;;;21.54;54.44;102260.44;5001459;28;20060;-66
2022/07/16 08:34:01;;;;;;;6.05;1.25;;;;;;;21.09;54.20;102282.38;5001133;28;20053;-65
2022/07/16 08:36:27;;;;;;;3.50;1.25;;;;;;;21.53;52.81;102262.25;5000989;28;20038;-65
2022/07/16 08:38:52;;;;;;;2.95;0.95;;;;;;;21.12;55.87;102273.94;5000935;28;20107;-66
2022/07/16 08:41:18;;;;;;;3.65;1.33;;;;;;;21.83;55.26;102275.00;5000703;28;20026;-67
2022/07/16 08:43:47;;;;;;;3.47;1.08;;;;;;;21.01;56.46;102284.84;5000587;28;20054;-66
2022/07/16 08:46:13;;;;;;;1.73;1.02;;;;;;;21.90;55.94;102281.63;5000328;28;20765;-66
2022/07/16 08:48:38;;;;;;;2.55;1.02;;;;;;;21.70;52.82;102282.53;5000901;28;20872;-66
2022/07/16 08:51:09;;;;;;;2.85;1.15;;;;;;;22.05;54.10;102283.97;5000824;28;20045;-67
2022/07/16 08:53:36;;;;;;;3.03;1.20;;;;;;;22.04;53.33;102295.81;4999948;28;20509;-66
2022/07/16 08:56:04;;;;;;;4.18;1.42;;;;;;;21.01;56.64;102303.84;4998955;28;20533;-66
2022/07/16 08:58:31;;;;;;;5.45;1.65;;;;;;;21.00;55.21;102310.25;5001413;28;20061;-67
2022/07/16 09:00:57;;;;;;;3.47;1.33;;;;;;;22.29;56.60;102295.41;5000874;28;20542;-66
2022/07/16 09:03:23;;;;;;;3.25;1.30;;;;;;;21.31;56.72;102311.25;5001145;28;20475;-68
2022/07/16 09:05:54;;;;;;;3.35;1.20;;;;;;;22.17;56.31;102299.19;5000730;28;20054;-67
2022/07/16 09:08:23;;;;;;;3.92;0.73;;;;;;;21.58;51.76;102311.59;5000387;28;20072;-67
2022/07/16 09:10:49;;;;;;;3.90;1.10;;;;;;;21.68;56.21;102312.50;4999943;28;20053;-67
2022/07/16 09:13:15;;;;;;;3.92;1.02;;;;;;;20.54;55.56;102319.50;4999699;28;20046;-67
2022/07/16 09:15:42;;;;;;;2.95;1.13;;;;;;;21.38;51.74;102321.44;5000037;28;20124;-66
2022/07/16 09:18:17;;;;;;;7.28;1.63;;;;;;;21.76;51.67;102330.00;4999748;28;20569;-66
2022/07/16 09:20:55;;;;;;;3.63;0.88;;;;;;;20.95;51.97;102322.34;4999735;28;20491;-67
2022/07/16 09:23:24;;;;;;;2.00;0.90;;;;;;;20.05;54.52;102332.44;5000875;28;20042;-66
2022/07/16 09:25:55;;;;;;;5.15;1.20;;;;;;;19.23;57.16;102339.72;4989827;28;20566;-67
2022/07/16 09:28:23;;;;;;;4.65;1.25;;;;;;;20.59;54.55;102341.69;4981727;28;20042;-67
2022/07/16 09:30:48;;;;;;;2.50;0.98;;;;;;;21.67;51.95;102339.78;4980058;28;20120;-66
2022/07/16 09:33:17;;;;;;;5.82;0.98;;;;;;;21.70;49.92;102350.41;4980400;28;20042;-67
2022/07/16 09:35:46;;;;;;;5.03;1.10;;;;;;;22.12;52.79;102342.22;4980483;28;20339;-67
2022/07/16 09:38:13;;;;;;;4.88;0.95;;;;;;;22.97;44.77;102326.31;4978314;28;20061;-68
2022/07/16 09:40:48;;;;;;;4.50;1.20;;;;;;;20.91;50.34;102341.72;4985011;28;20030;-66
2022/07/16 09:43:14;;;;;;;4.00;1.10;;;;;;;20.69;52.76;102345.38;4997385;28;20810;-67
2022/07/16 09:45:40;;;;;;;6.18;1.45;;;;;;;20.71;50.90;102351.50;4996213;28;20040;-67
2022/07/16 09:48:27;;;;;;;6.72;1.30;;;;;;;21.38;50.96;102345.88;5016061;28;20046;-67
2022/07/16 09:50:56;;;;;;;2.50;0.93;;;;;;;21.36;49.92;102336.16;4987542;28;20040;-66
2022/07/16 09:53:26;;;;;;;1.95;0.90;;;;;;;21.19;50.03;102348.41;4991037;28;20022;-67
2022/07/16 09:56:08;;;;;;;1.40;1.10;;;;;;;20.76;49.35;102354.69;5024883;28;20029;-68
2022/07/16 09:58:35;;;;;;;2.70;1.10;;;;;;;21.92;52.14;102352.97;5010275;28;20026;-68
2022/07/16 10:01:02;;;;;;;2.90;1.13;;;;;;;20.94;49.69;102361.31;5012185;28;20027;-68
2022/07/16 10:03:29;;;;;;;5.88;1.88;;;;;;;20.79;49.22;102361.75;5005149;28;20027;-68
2022/07/16 10:05:55;;;;;;;3.80;1.05;;;;;;;22.02;48.22;102350.28;5011189;28;20077;-66
2022/07/16 10:08:21;;;;;;;1.38;0.70;;;;;;;20.77;48.09;102352.84;5008025;28;20481;-68
2022/07/16 10:10:48;;;;;;;3.53;0.88;;;;;;;21.85;45.67;102351.78;5018649;28;20219;-66
2022/07/16 10:13:14;;;;;;;3.15;0.80;;;;;;;21.81;46.09;102361.19;5014530;28;20045;-67
2022/07/16 10:15:41;;;;;;;4.25;0.98;;;;;;;21.66;47.23;102362.53;5024971;28;20037;-68
2022/07/16 10:18:39;;;;;;;3.53;0.70;;;;;;;20.92;48.68;102363.28;5007849;28;20046;-67
2022/07/16 10:21:21;;;;;;;2.40;1.40;;;;;;;20.90;50.97;102378.84;5016127;28;20249;-68
2022/07/16 10:24:03;;;;;;;5.60;1.30;;;;;;;20.39;52.93;102378.50;5021096;28;20097;-66
2022/07/16 10:26:29;;;;;;;3.53;0.95;;;;;;;21.13;52.42;102387.75;5004898;28;20050;-68
2022/07/16 10:28:55;;;;;;;3.35;0.70;;;;;;;20.92;50.82;102371.41;5013069;28;20075;-66
2022/07/16 10:31:35;;;;;;;6.13;1.10;;;;;;;22.18;47.88;102367.00;5013099;28;20035;-69
2022/07/16 10:34:33;;;;;;;2.55;0.80;;;;;;;22.27;51.14;102359.03;5005785;28;20026;-69
2022/07/16 10:36:59;;;;;;;3.40;0.90;;;;;;;21.67;47.56;102375.09;5016185;28;20069;-69
2022/07/16 10:39:26;;;;;;;3.17;0.90;;;;;;;21.50;53.08;102381.97;5017220;28;20034;-68
2022/07/16 10:41:54;;;;;;;6.82;1.13;;;;;;;22.04;46.22;102377.31;5020142;28;20061;-68
2022/07/16 10:44:23;;;;;;;3.58;0.80;;;;;;;23.29;47.77;102373.31;5021674;28;20082;-68
2022/07/16 10:46:57;;;;;;;5.82;1.13;;;;;;;21.20;47.86;102377.25;5010726;28;20026;-68
2022/07/16 10:49:24;;;;;;;3.60;0.95;;;;;;;21.86;49.17;102386.09;5012701;28;20102;-68
2022/07/16 10:51:59;;;;;;;4.32;1.00;;;;;;;21.99;49.20;102394.06;5020120;28;20057;-68
2022/07/16 10:54:27;;;;;;;5.53;1.20;;;;;;;22.13;48.19;102393.72;5018230;28;20370;-68
2022/07/16 10:56:54;;;;;;;1.05;0.68;;;;;;;22.45;44.41;102390.88;5013313;28;20032;-67
2022/07/16 10:59:25;;;;;;;3.13;1.00;;;;;;;21.41;52.43;102407.19;5024895;28;20048;-67
2022/07/16 11:01:54;;;;;;;1.20;0.80;;;;;;;20.18;51.85;102413.56;5021501;28;20118;-66
2022/07/16 11:04:40;;;;;;;6.50;0.93;;;;;;;20.87;54.48;102399.91;5025359;28;20468;-67
2022/07/16 11:07:09;;;;;;;3.15;1.27;;;;;;;20.90;50.90;102402.38;5024772;28;20101;-67
2022/07/16 11:09:38;;;;;;;6.18;1.15;;;;;;;21.28;50.27;102396.47;5025253;28;20026;-66
2022/07/16 11:12:12;;;;;;;4.53;1.10;;;;;;;22.86;47.99;102394.44;5008660;28;20137;-67
2022/07/16 11:14:39;;;;;;;5.22;1.10;;;;;;;22.85;44.22;102400.03;5024793;28;20037;-67
2022/07/16 11:17:04;;;;;;;5.47;0.85;;;;;;;21.97;44.95;102410.47;5016393;28;20062;-67
2022/07/16 11:19:35;;;;;;;3.90;1.25;;;;;;;23.12;44.41;102389.38;5020289;28;20075;-67
2022/07/16 11:22:02;;;;;;;4.35;0.80;;;;;;;23.07;47.75;102401.69;5012451;28;20098;-67
2022/07/16 11:24:28;;;;;;;4.75;0.95;;;;;;;21.15;49.22;102412.91;5010843;28;20057;-67
2022/07/16 11:26:55;;;;;;;5.97;1.17;;;;;;;21.36;50.48;102415.72;5016344;28;20033;-67
2022/07/16 11:29:24;;;;;;;7.25;1.08;;;;;;;21.89;46.99;102417.59;5028825;28;20029;-67
2022/07/16 11:31:50;;;;;;;3.28;1.20;;;;;;;22.62;46.09;102412.97;5012472;28;20034;-67